Khamis Mushait, Saudi Arabia
Current Conditions -  °F | °C
As of 7:00 PM on Saturday 22 Nov 2014 (Local Time) from OEKM Reporting Station
Few Clouds Few Clouds  
Wind Chill: 63°   Ceiling: Unl
Heat Index: 63°   Visibility: 6mi
Dew Point: 55°   Wind: 9mph
Humidity: 77%   Direction: 230°SW
Pressure: 30.27"   Gusts: NA
Location:  18.3°N, 42.8°E
Report Text: OEKM 221600Z 23008KT 9999 FEW022 17/13 Q1025 NOSIG
Loading
Personal Weather Stations






























Interactive Weather Map New forecast layout! Learn more

10-Day Weather Forecast

Advertisements
Track Severe Weather on mobile